sensor_id;sensor_type;location;lat;lon;timestamp;pressure;altitude;pressure_sealevel;temperature;humidity
59009;BME280;44794;42.652;23.318;2024-01-30T00:00:28;96499.75;;;2.88;57.08
59009;BME280;44794;42.652;23.318;2024-01-30T00:02:53;96505.56;;;3.00;56.52
59009;BME280;44794;42.652;23.318;2024-01-30T00:05:18;96504.69;;;3.00;56.23
59009;BME280;44794;42.652;23.318;2024-01-30T00:07:44;96509.81;;;3.03;56.26
59009;BME280;44794;42.652;23.318;2024-01-30T00:10:09;96509.84;;;2.98;56.77
59009;BME280;44794;42.652;23.318;2024-01-30T00:12:34;96500.75;;;2.80;57.03
59009;BME280;44794;42.652;23.318;2024-01-30T00:15:00;96510.66;;;2.40;57.61
59009;BME280;44794;42.652;23.318;2024-01-30T00:17:25;96508.13;;;2.39;58.30
59009;BME280;44794;42.652;23.318;2024-01-30T00:19:51;96509.59;;;2.58;57.83
59009;BME280;44794;42.652;23.318;2024-01-30T00:22:17;96515.63;;;2.54;57.79
59009;BME280;44794;42.652;23.318;2024-01-30T00:24:42;96517.13;;;2.68;57.49
59009;BME280;44794;42.652;23.318;2024-01-30T00:27:09;96511.91;;;2.77;57.13
59009;BME280;44794;42.652;23.318;2024-01-30T00:29:34;96521.16;;;2.86;56.74
59009;BME280;44794;42.652;23.318;2024-01-30T00:31:59;96519.50;;;2.83;56.81
59009;BME280;44794;42.652;23.318;2024-01-30T00:34:25;96519.44;;;2.86;56.95
59009;BME280;44794;42.652;23.318;2024-01-30T00:36:50;96510.06;;;2.85;57.10
59009;BME280;44794;42.652;23.318;2024-01-30T00:39:15;96510.88;;;2.89;56.89
59009;BME280;44794;42.652;23.318;2024-01-30T00:41:41;96513.53;;;2.81;57.17
59009;BME280;44794;42.652;23.318;2024-01-30T00:44:06;96505.09;;;2.73;57.56
59009;BME280;44794;42.652;23.318;2024-01-30T00:46:32;96511.22;;;2.63;57.56
59009;BME280;44794;42.652;23.318;2024-01-30T00:48:57;96506.84;;;2.71;57.81
59009;BME280;44794;42.652;23.318;2024-01-30T00:51:22;96504.78;;;2.94;57.10
59009;BME280;44794;42.652;23.318;2024-01-30T00:53:48;96514.06;;;3.04;57.31
59009;BME280;44794;42.652;23.318;2024-01-30T00:56:13;96510.66;;;3.02;57.30
59009;BME280;44794;42.652;23.318;2024-01-30T00:58:38;96505.66;;;2.95;57.43
59009;BME280;44794;42.652;23.318;2024-01-30T01:01:04;96503.19;;;2.87;57.51
59009;BME280;44794;42.652;23.318;2024-01-30T01:03:29;96500.56;;;2.92;57.48
59009;BME280;44794;42.652;23.318;2024-01-30T01:05:54;96510.88;;;2.87;57.25
59009;BME280;44794;42.652;23.318;2024-01-30T01:08:20;96498.03;;;2.90;57.14
59009;BME280;44794;42.652;23.318;2024-01-30T01:10:45;96502.53;;;2.75;57.57
59009;BME280;44794;42.652;23.318;2024-01-30T01:13:10;96500.31;;;2.49;58.30
59009;BME280;44794;42.652;23.318;2024-01-30T01:15:36;96507.81;;;2.63;58.43
59009;BME280;44794;42.652;23.318;2024-01-30T01:18:02;96494.91;;;2.67;58.23
59009;BME280;44794;42.652;23.318;2024-01-30T01:20:27;96507.63;;;2.76;57.74
59009;BME280;44794;42.652;23.318;2024-01-30T01:22:52;96501.63;;;2.77;57.58
59009;BME280;44794;42.652;23.318;2024-01-30T01:25:18;96499.00;;;2.80;57.58
59009;BME280;44794;42.652;23.318;2024-01-30T01:27:43;96499.06;;;2.77;57.37
59009;BME280;44794;42.652;23.318;2024-01-30T01:30:16;96504.50;;;2.56;58.27
59009;BME280;44794;42.652;23.318;2024-01-30T01:32:46;96500.03;;;2.70;58.64
59009;BME280;44794;42.652;23.318;2024-01-30T01:35:20;96502.69;;;2.61;58.96
59009;BME280;44794;42.652;23.318;2024-01-30T01:37:45;96503.94;;;2.30;60.15
59009;BME280;44794;42.652;23.318;2024-01-30T01:40:10;96493.94;;;2.10;60.43
59009;BME280;44794;42.652;23.318;2024-01-30T01:42:36;96499.50;;;1.74;62.16
59009;BME280;44794;42.652;23.318;2024-01-30T01:45:01;96502.41;;;2.19;60.89
59009;BME280;44794;42.652;23.318;2024-01-30T01:47:26;96507.13;;;2.50;59.15
59009;BME280;44794;42.652;23.318;2024-01-30T01:49:51;96511.34;;;2.54;58.71
59009;BME280;44794;42.652;23.318;2024-01-30T01:52:17;96508.97;;;2.39;58.68
59009;BME280;44794;42.652;23.318;2024-01-30T01:54:42;96500.00;;;2.04;59.80
59009;BME280;44794;42.652;23.318;2024-01-30T01:57:08;96499.88;;;2.13;60.09
59009;BME280;44794;42.652;23.318;2024-01-30T01:59:33;96506.41;;;2.39;59.50
59009;BME280;44794;42.652;23.318;2024-01-30T02:01:59;96513.03;;;2.55;58.66
59009;BME280;44794;42.652;23.318;2024-01-30T02:04:25;96514.81;;;2.49;58.66
59009;BME280;44794;42.652;23.318;2024-01-30T02:06:50;96514.00;;;2.48;58.47
59009;BME280;44794;42.652;23.318;2024-01-30T02:09:16;96511.34;;;2.54;57.92
59009;BME280;44794;42.652;23.318;2024-01-30T02:11:42;96513.00;;;2.60;57.97
59009;BME280;44794;42.652;23.318;2024-01-30T02:14:07;96521.31;;;2.75;57.66
59009;BME280;44794;42.652;23.318;2024-01-30T02:16:32;96512.66;;;2.84;57.21
59009;BME280;44794;42.652;23.318;2024-01-30T02:18:57;96514.19;;;2.95;56.76
59009;BME280;44794;42.652;23.318;2024-01-30T02:21:23;96527.50;;;3.19;55.60
59009;BME280;44794;42.652;23.318;2024-01-30T02:23:48;96519.81;;;3.19;55.22
59009;BME280;44794;42.652;23.318;2024-01-30T02:26:14;96524.06;;;3.20;54.66
59009;BME280;44794;42.652;23.318;2024-01-30T02:28:39;96524.97;;;3.18;54.60
59009;BME280;44794;42.652;23.318;2024-01-30T02:31:05;96524.31;;;3.05;54.55
59009;BME280;44794;42.652;23.318;2024-01-30T02:33:30;96516.75;;;2.95;55.13
59009;BME280;44794;42.652;23.318;2024-01-30T02:35:56;96518.88;;;3.25;54.70
59009;BME280;44794;42.652;23.318;2024-01-30T02:38:21;96523.25;;;3.20;54.46
59009;BME280;44794;42.652;23.318;2024-01-30T02:40:46;96515.06;;;3.48;54.21
59009;BME280;44794;42.652;23.318;2024-01-30T02:43:11;96517.25;;;3.70;53.81
59009;BME280;44794;42.652;23.318;2024-01-30T02:45:37;96524.19;;;3.66;53.38
59009;BME280;44794;42.652;23.318;2024-01-30T02:48:02;96517.97;;;3.78;52.91
59009;BME280;44794;42.652;23.318;2024-01-30T02:50:27;96521.72;;;3.60;53.12
59009;BME280;44794;42.652;23.318;2024-01-30T02:52:53;96521.88;;;3.51;53.13
59009;BME280;44794;42.652;23.318;2024-01-30T02:55:18;96521.19;;;3.41;53.32
59009;BME280;44794;42.652;23.318;2024-01-30T02:57:43;96525.03;;;3.66;53.35
59009;BME280;44794;42.652;23.318;2024-01-30T03:00:09;96521.84;;;3.54;53.09
59009;BME280;44794;42.652;23.318;2024-01-30T03:02:34;96522.56;;;3.62;53.07
59009;BME280;44794;42.652;23.318;2024-01-30T03:05:00;96522.94;;;3.87;52.77
59009;BME280;44794;42.652;23.318;2024-01-30T03:07:25;96518.84;;;3.77;52.59
59009;BME280;44794;42.652;23.318;2024-01-30T03:09:51;96516.94;;;3.88;52.61
59009;BME280;44794;42.652;23.318;2024-01-30T03:12:16;96517.53;;;4.01;52.24
59009;BME280;44794;42.652;23.318;2024-01-30T03:14:41;96517.44;;;4.08;51.79
59009;BME280;44794;42.652;23.318;2024-01-30T03:17:07;96518.34;;;4.04;51.67
59009;BME280;44794;42.652;23.318;2024-01-30T03:19:32;96515.75;;;4.04;51.44
59009;BME280;44794;42.652;23.318;2024-01-30T03:21:58;96521.09;;;3.94;51.62
59009;BME280;44794;42.652;23.318;2024-01-30T03:24:23;96512.34;;;3.56;51.98
59009;BME280;44794;42.652;23.318;2024-01-30T03:26:49;96511.38;;;3.64;52.19
59009;BME280;44794;42.652;23.318;2024-01-30T03:29:14;96514.03;;;3.60;52.36
59009;BME280;44794;42.652;23.318;2024-01-30T03:31:39;96518.13;;;3.17;52.69
59009;BME280;44794;42.652;23.318;2024-01-30T03:34:04;96514.16;;;2.98;51.77
59009;BME280;44794;42.652;23.318;2024-01-30T03:36:30;96508.59;;;2.66;52.74
59009;BME280;44794;42.652;23.318;2024-01-30T03:38:58;96506.09;;;2.63;53.64
59009;BME280;44794;42.652;23.318;2024-01-30T03:41:23;96512.13;;;2.59;53.19
59009;BME280;44794;42.652;23.318;2024-01-30T03:43:48;96506.25;;;2.51;54.11
59009;BME280;44794;42.652;23.318;2024-01-30T03:46:13;96505.19;;;2.67;52.98
59009;BME280;44794;42.652;23.318;2024-01-30T03:48:39;96499.84;;;2.82;52.75
59009;BME280;44794;42.652;23.318;2024-01-30T03:51:05;96497.91;;;2.97;52.53
59009;BME280;44794;42.652;23.318;2024-01-30T03:53:30;96503.75;;;3.07;52.30
59009;BME280;44794;42.652;23.318;2024-01-30T03:55:56;96504.56;;;3.09;51.77
59009;BME280;44794;42.652;23.318;2024-01-30T03:58:21;96505.34;;;3.15;52.07
59009;BME280;44794;42.652;23.318;2024-01-30T04:00:46;96497.47;;;3.26;51.65
59009;BME280;44794;42.652;23.318;2024-01-30T04:03:12;96502.44;;;3.36;51.69
59009;BME280;44794;42.652;23.318;2024-01-30T04:05:37;96503.50;;;3.23;51.66
59009;BME280;44794;42.652;23.318;2024-01-30T04:08:02;96497.38;;;3.32;51.71
59009;BME280;44794;42.652;23.318;2024-01-30T04:10:28;96494.56;;;3.45;51.45
59009;BME280;44794;42.652;23.318;2024-01-30T04:12:53;96508.78;;;3.66;51.17
59009;BME280;44794;42.652;23.318;2024-01-30T04:15:19;96493.03;;;3.85;51.13
59009;BME280;44794;42.652;23.318;2024-01-30T04:17:44;96496.16;;;4.00;51.33
59009;BME280;44794;42.652;23.318;2024-01-30T04:20:18;96504.31;;;4.20;50.97
59009;BME280;44794;42.652;23.318;2024-01-30T04:22:44;96499.25;;;4.17;51.33
59009;BME280;44794;42.652;23.318;2024-01-30T04:25:09;96497.44;;;4.22;50.78
59009;BME280;44794;42.652;23.318;2024-01-30T04:27:35;96517.63;;;4.40;50.02
59009;BME280;44794;42.652;23.318;2024-01-30T04:30:00;96509.13;;;4.38;49.31
59009;BME280;44794;42.652;23.318;2024-01-30T04:32:25;96512.72;;;4.30;49.24
59009;BME280;44794;42.652;23.318;2024-01-30T04:34:50;96522.13;;;4.31;48.88
59009;BME280;44794;42.652;23.318;2024-01-30T04:37:16;96513.91;;;4.14;49.04
59009;BME280;44794;42.652;23.318;2024-01-30T04:39:41;96520.50;;;3.81;48.97
59009;BME280;44794;42.652;23.318;2024-01-30T04:42:07;96518.34;;;3.58;49.75
59009;BME280;44794;42.652;23.318;2024-01-30T04:44:32;96512.47;;;3.50;50.17
59009;BME280;44794;42.652;23.318;2024-01-30T04:46:57;96505.81;;;3.40;50.35
59009;BME280;44794;42.652;23.318;2024-01-30T04:49:26;96513.69;;;3.29;50.69
59009;BME280;44794;42.652;23.318;2024-01-30T04:51:51;96517.09;;;3.28;50.84
59009;BME280;44794;42.652;23.318;2024-01-30T04:54:16;96530.97;;;3.17;51.13
59009;BME280;44794;42.652;23.318;2024-01-30T04:56:42;96526.13;;;2.99;51.35
59009;BME280;44794;42.652;23.318;2024-01-30T04:59:07;96530.00;;;2.67;51.93
59009;BME280;44794;42.652;23.318;2024-01-30T05:01:33;96530.91;;;2.61;52.48
59009;BME280;44794;42.652;23.318;2024-01-30T05:04:13;96530.31;;;2.41;52.43
59009;BME280;44794;42.652;23.318;2024-01-30T05:06:38;96523.03;;;2.06;53.51
59009;BME280;44794;42.652;23.318;2024-01-30T05:09:03;96523.09;;;2.01;53.90
59009;BME280;44794;42.652;23.318;2024-01-30T05:11:29;96520.06;;;1.65;54.90
59009;BME280;44794;42.652;23.318;2024-01-30T05:13:54;96524.97;;;1.83;54.32
59009;BME280;44794;42.652;23.318;2024-01-30T05:16:20;96527.25;;;2.11;53.29
59009;BME280;44794;42.652;23.318;2024-01-30T05:18:45;96525.03;;;1.80;53.79
59009;BME280;44794;42.652;23.318;2024-01-30T05:21:10;96524.41;;;1.55;53.84
59009;BME280;44794;42.652;23.318;2024-01-30T05:23:35;96524.50;;;1.44;54.25
59009;BME280;44794;42.652;23.318;2024-01-30T05:26:01;96535.53;;;1.53;53.87
59009;BME280;44794;42.652;23.318;2024-01-30T05:28:27;96528.66;;;1.55;54.45
59009;BME280;44794;42.652;23.318;2024-01-30T05:30:52;96533.84;;;1.49;54.39
59009;BME280;44794;42.652;23.318;2024-01-30T05:33:18;96532.84;;;1.66;54.08
59009;BME280;44794;42.652;23.318;2024-01-30T05:35:43;96536.06;;;1.88;53.54
59009;BME280;44794;42.652;23.318;2024-01-30T05:38:08;96534.94;;;2.10;52.92
59009;BME280;44794;42.652;23.318;2024-01-30T05:40:34;96541.53;;;2.31;52.33
59009;BME280;44794;42.652;23.318;2024-01-30T05:42:59;96538.94;;;2.34;52.73
59009;BME280;44794;42.652;23.318;2024-01-30T05:45:26;96542.25;;;2.41;52.73
59009;BME280;44794;42.652;23.318;2024-01-30T05:47:53;96548.06;;;2.58;52.07
59009;BME280;44794;42.652;23.318;2024-01-30T05:50:19;96542.94;;;2.55;52.31
59009;BME280;44794;42.652;23.318;2024-01-30T05:52:45;96534.38;;;2.59;52.14
59009;BME280;44794;42.652;23.318;2024-01-30T05:55:11;96545.47;;;2.61;51.95
59009;BME280;44794;42.652;23.318;2024-01-30T05:57:37;96537.78;;;2.58;52.00
59009;BME280;44794;42.652;23.318;2024-01-30T06:00:02;96531.97;;;2.45;52.85
59009;BME280;44794;42.652;23.318;2024-01-30T06:02:28;96522.56;;;2.44;54.40
59009;BME280;44794;42.652;23.318;2024-01-30T06:04:54;96521.00;;;2.34;55.57
59009;BME280;44794;42.652;23.318;2024-01-30T06:07:19;96520.94;;;2.39;55.82
59009;BME280;44794;42.652;23.318;2024-01-30T06:09:44;96519.13;;;2.45;54.97
59009;BME280;44794;42.652;23.318;2024-01-30T06:12:11;96531.06;;;2.49;54.27
59009;BME280;44794;42.652;23.318;2024-01-30T06:14:37;96532.72;;;2.53;54.78
59009;BME280;44794;42.652;23.318;2024-01-30T06:17:02;96531.84;;;2.57;54.55
59009;BME280;44794;42.652;23.318;2024-01-30T06:19:28;96535.22;;;2.58;54.72
59009;BME280;44794;42.652;23.318;2024-01-30T06:21:53;96533.53;;;2.57;54.70
59009;BME280;44794;42.652;23.318;2024-01-30T06:24:18;96539.53;;;2.56;54.22
59009;BME280;44794;42.652;23.318;2024-01-30T06:26:43;96543.84;;;2.52;53.86
59009;BME280;44794;42.652;23.318;2024-01-30T06:29:09;96540.34;;;2.58;53.67
59009;BME280;44794;42.652;23.318;2024-01-30T06:31:39;96538.44;;;2.73;53.51
59009;BME280;44794;42.652;23.318;2024-01-30T06:34:04;96545.34;;;2.71;53.92
59009;BME280;44794;42.652;23.318;2024-01-30T06:36:30;96539.66;;;2.45;54.53
59009;BME280;44794;42.652;23.318;2024-01-30T06:38:55;96527.94;;;2.26;54.80
59009;BME280;44794;42.652;23.318;2024-01-30T06:41:20;96524.91;;;1.89;55.74
59009;BME280;44794;42.652;23.318;2024-01-30T06:43:46;96524.13;;;1.84;56.80
59009;BME280;44794;42.652;23.318;2024-01-30T06:46:11;96534.16;;;2.05;56.76
59009;BME280;44794;42.652;23.318;2024-01-30T06:48:36;96531.53;;;2.11;56.62
59009;BME280;44794;42.652;23.318;2024-01-30T06:51:05;96533.34;;;2.00;56.85
59009;BME280;44794;42.652;23.318;2024-01-30T06:53:30;96528.25;;;1.98;56.95
59009;BME280;44794;42.652;23.318;2024-01-30T06:55:55;96544.69;;;2.51;55.76
59009;BME280;44794;42.652;23.318;2024-01-30T06:58:21;96540.63;;;2.34;56.20
59009;BME280;44794;42.652;23.318;2024-01-30T07:00:46;96537.75;;;2.59;55.97
59009;BME280;44794;42.652;23.318;2024-01-30T07:03:11;96549.50;;;2.78;55.87
59009;BME280;44794;42.652;23.318;2024-01-30T07:05:36;96545.09;;;2.88;54.70
59009;BME280;44794;42.652;23.318;2024-01-30T07:08:02;96556.97;;;2.93;53.92
59009;BME280;44794;42.652;23.318;2024-01-30T07:10:28;96551.13;;;2.85;53.12
59009;BME280;44794;42.652;23.318;2024-01-30T07:12:54;96567.38;;;2.83;51.85
59009;BME280;44794;42.652;23.318;2024-01-30T07:15:19;96570.88;;;2.79;50.68
59009;BME280;44794;42.652;23.318;2024-01-30T07:17:45;96560.59;;;2.79;50.24
59009;BME280;44794;42.652;23.318;2024-01-30T07:20:11;96573.22;;;2.95;49.69
59009;BME280;44794;42.652;23.318;2024-01-30T07:22:36;96566.69;;;3.32;49.22
59009;BME280;44794;42.652;23.318;2024-01-30T07:25:01;96573.97;;;3.59;49.18
59009;BME280;44794;42.652;23.318;2024-01-30T07:27:26;96581.84;;;3.48;48.43
59009;BME280;44794;42.652;23.318;2024-01-30T07:29:52;96577.38;;;3.02;49.01
59009;BME280;44794;42.652;23.318;2024-01-30T07:32:17;96575.06;;;2.84;49.50
59009;BME280;44794;42.652;23.318;2024-01-30T07:34:43;96575.69;;;3.02;48.78
59009;BME280;44794;42.652;23.318;2024-01-30T07:37:09;96572.31;;;2.99;48.77
59009;BME280;44794;42.652;23.318;2024-01-30T07:39:34;96569.28;;;3.29;48.97
59009;BME280;44794;42.652;23.318;2024-01-30T07:42:00;96571.41;;;3.00;48.98
59009;BME280;44794;42.652;23.318;2024-01-30T07:44:26;96561.00;;;3.12;49.38
59009;BME280;44794;42.652;23.318;2024-01-30T07:46:51;96557.72;;;3.01;49.68
59009;BME280;44794;42.652;23.318;2024-01-30T07:49:16;96563.03;;;2.89;49.80
59009;BME280;44794;42.652;23.318;2024-01-30T09:45:50;96557.56;;;4.15;47.80
59009;BME280;44794;42.652;23.318;2024-01-30T09:48:16;96560.25;;;4.53;46.48
59009;BME280;44794;42.652;23.318;2024-01-30T09:50:41;96555.88;;;4.99;45.98
59009;BME280;44794;42.652;23.318;2024-01-30T09:53:07;96565.97;;;5.08;45.47
59009;BME280;44794;42.652;23.318;2024-01-30T09:55:33;96558.81;;;5.20;45.87
59009;BME280;44794;42.652;23.318;2024-01-30T09:58:00;96561.38;;;4.81;45.87
59009;BME280;44794;42.652;23.318;2024-01-30T10:00:25;96555.53;;;5.14;45.30
59009;BME280;44794;42.652;23.318;2024-01-30T10:02:52;96559.84;;;4.72;46.30
59009;BME280;44794;42.652;23.318;2024-01-30T10:05:17;96541.66;;;5.20;46.48
59009;BME280;44794;42.652;23.318;2024-01-30T10:07:52;96544.00;;;4.92;46.31
59009;BME280;44794;42.652;23.318;2024-01-30T10:10:18;96540.22;;;4.67;47.10
59009;BME280;44794;42.652;23.318;2024-01-30T10:12:43;96539.00;;;4.86;46.67
59009;BME280;44794;42.652;23.318;2024-01-30T10:15:08;96546.03;;;4.78;46.16
59009;BME280;44794;42.652;23.318;2024-01-30T10:17:34;96534.44;;;4.59;46.83
59009;BME280;44794;42.652;23.318;2024-01-30T10:20:04;96542.25;;;4.09;46.99
59009;BME280;44794;42.652;23.318;2024-01-30T10:22:29;96541.66;;;3.94;47.76
59009;BME280;44794;42.652;23.318;2024-01-30T10:24:55;96545.03;;;3.97;47.64
59009;BME280;44794;42.652;23.318;2024-01-30T10:27:24;96541.97;;;4.24;46.68
59009;BME280;44794;42.652;23.318;2024-01-30T10:29:49;96549.66;;;4.68;46.15
59009;BME280;44794;42.652;23.318;2024-01-30T10:32:14;96547.69;;;4.80;46.28
59009;BME280;44794;42.652;23.318;2024-01-30T10:34:40;96546.78;;;4.83;46.58
59009;BME280;44794;42.652;23.318;2024-01-30T10:37:08;96543.94;;;4.95;46.27
59009;BME280;44794;42.652;23.318;2024-01-30T10:39:43;96540.06;;;5.15;45.70
59009;BME280;44794;42.652;23.318;2024-01-30T10:42:15;96542.25;;;4.94;45.79
59009;BME280;44794;42.652;23.318;2024-01-30T10:47:11;96541.25;;;4.99;45.45
59009;BME280;44794;42.652;23.318;2024-01-30T10:49:38;96539.91;;;5.22;45.87
59009;BME280;44794;42.652;23.318;2024-01-30T10:52:05;96535.66;;;4.81;45.98
59009;BME280;44794;42.652;23.318;2024-01-30T10:54:30;96535.19;;;5.02;45.75
59009;BME280;44794;42.652;23.318;2024-01-30T10:56:56;96522.13;;;5.12;45.63
59009;BME280;44794;42.652;23.318;2024-01-30T10:59:23;96519.03;;;5.33;45.87
59009;BME280;44794;42.652;23.318;2024-01-30T11:01:49;96521.72;;;4.91;45.32
59009;BME280;44794;42.652;23.318;2024-01-30T11:04:15;96524.31;;;4.50;46.17
59009;BME280;44794;42.652;23.318;2024-01-30T11:06:41;96511.63;;;3.97;47.31
59009;BME280;44794;42.652;23.318;2024-01-30T11:09:10;96503.25;;;4.32;47.57
59009;BME280;44794;42.652;23.318;2024-01-30T11:11:52;96503.81;;;4.45;46.40
59009;BME280;44794;42.652;23.318;2024-01-30T11:14:23;96507.03;;;4.55;47.55
59009;BME280;44794;42.652;23.318;2024-01-30T11:16:49;96498.06;;;4.74;46.71
59009;BME280;44794;42.652;23.318;2024-01-30T11:19:14;96500.94;;;4.98;46.46
59009;BME280;44794;42.652;23.318;2024-01-30T11:21:42;96498.91;;;5.48;45.67
59009;BME280;44794;42.652;23.318;2024-01-30T11:24:07;96503.06;;;5.18;45.67
59009;BME280;44794;42.652;23.318;2024-01-30T11:26:33;96500.63;;;5.48;45.40
59009;BME280;44794;42.652;23.318;2024-01-30T11:28:59;96507.50;;;5.13;46.18
59009;BME280;44794;42.652;23.318;2024-01-30T11:31:27;96505.44;;;4.89;45.83
59009;BME280;44794;42.652;23.318;2024-01-30T11:33:53;96511.31;;;4.56;46.71
59009;BME280;44794;42.652;23.318;2024-01-30T11:36:19;96502.47;;;4.69;47.05
59009;BME280;44794;42.652;23.318;2024-01-30T11:38:46;96514.28;;;4.79;46.35
59009;BME280;44794;42.652;23.318;2024-01-30T11:41:11;96508.41;;;5.10;46.17
59009;BME280;44794;42.652;23.318;2024-01-30T11:43:38;96495.97;;;4.91;47.55
59009;BME280;44794;42.652;23.318;2024-01-30T11:46:05;96494.38;;;4.85;46.54
59009;BME280;44794;42.652;23.318;2024-01-30T11:48:31;96505.16;;;4.63;46.75
59009;BME280;44794;42.652;23.318;2024-01-30T11:50:56;96497.72;;;4.07;47.53
59009;BME280;44794;42.652;23.318;2024-01-30T11:53:21;96491.44;;;3.76;48.50
59009;BME280;44794;42.652;23.318;2024-01-30T11:55:50;96485.47;;;4.21;48.23
59009;BME280;44794;42.652;23.318;2024-01-30T11:58:16;96478.28;;;4.38;47.77
59009;BME280;44794;42.652;23.318;2024-01-30T12:00:41;96480.41;;;4.57;47.39
59009;BME280;44794;42.652;23.318;2024-01-30T12:03:07;96474.56;;;4.90;47.15
59009;BME280;44794;42.652;23.318;2024-01-30T12:05:32;96475.72;;;5.14;46.50
59009;BME280;44794;42.652;23.318;2024-01-30T12:07:57;96469.16;;;4.63;46.81
59009;BME280;44794;42.652;23.318;2024-01-30T12:10:25;96465.81;;;4.96;46.92
59009;BME280;44794;42.652;23.318;2024-01-30T12:12:51;96466.44;;;5.05;46.31
59009;BME280;44794;42.652;23.318;2024-01-30T12:15:18;96470.63;;;5.45;45.52
59009;BME280;44794;42.652;23.318;2024-01-30T12:17:43;96457.31;;;4.92;46.39
59009;BME280;44794;42.652;23.318;2024-01-30T12:20:12;96456.81;;;5.49;45.71
59009;BME280;44794;42.652;23.318;2024-01-30T12:22:39;96453.28;;;5.18;46.00
59009;BME280;44794;42.652;23.318;2024-01-30T12:25:05;96455.19;;;5.79;45.12
59009;BME280;44794;42.652;23.318;2024-01-30T12:27:33;96450.06;;;6.09;44.78
59009;BME280;44794;42.652;23.318;2024-01-30T12:29:58;96451.88;;;6.37;44.20
59009;BME280;44794;42.652;23.318;2024-01-30T12:32:24;96453.03;;;6.56;43.38
59009;BME280;44794;42.652;23.318;2024-01-30T12:34:49;96449.25;;;6.68;43.58
59009;BME280;44794;42.652;23.318;2024-01-30T12:37:14;96453.22;;;6.49;43.07
59009;BME280;44794;42.652;23.318;2024-01-30T12:39:44;96446.00;;;6.31;43.72
59009;BME280;44794;42.652;23.318;2024-01-30T12:42:10;96447.25;;;5.86;43.70
59009;BME280;44794;42.652;23.318;2024-01-30T12:44:35;96441.41;;;5.46;44.61
59009;BME280;44794;42.652;23.318;2024-01-30T12:47:02;96435.53;;;5.41;44.96
59009;BME280;44794;42.652;23.318;2024-01-30T12:49:27;96437.28;;;5.39;45.07
59009;BME280;44794;42.652;23.318;2024-01-30T12:51:53;96439.47;;;5.21;44.98
59009;BME280;44794;42.652;23.318;2024-01-30T12:54:18;96436.13;;;5.18;45.59
59009;BME280;44794;42.652;23.318;2024-01-30T12:56:43;96421.28;;;4.92;46.26
59009;BME280;44794;42.652;23.318;2024-01-30T12:59:09;96419.88;;;5.16;45.57
59009;BME280;44794;42.652;23.318;2024-01-30T13:01:34;96418.34;;;5.09;45.37
59009;BME280;44794;42.652;23.318;2024-01-30T13:03:59;96420.59;;;4.84;45.90
59009;BME280;44794;42.652;23.318;2024-01-30T13:06:24;96416.63;;;5.08;45.57
59009;BME280;44794;42.652;23.318;2024-01-30T13:08:50;96408.13;;;4.69;46.36
59009;BME280;44794;42.652;23.318;2024-01-30T13:11:15;96411.38;;;5.12;45.52
59009;BME280;44794;42.652;23.318;2024-01-30T13:13:40;96411.41;;;5.44;45.21
59009;BME280;44794;42.652;23.318;2024-01-30T13:16:05;96415.75;;;5.75;44.65
59009;BME280;44794;42.652;23.318;2024-01-30T13:18:31;96413.56;;;5.60;44.49
59009;BME280;44794;42.652;23.318;2024-01-30T13:20:56;96417.41;;;5.44;45.10
59009;BME280;44794;42.652;23.318;2024-01-30T13:23:21;96414.56;;;5.21;45.08
59009;BME280;44794;42.652;23.318;2024-01-30T13:25:47;96410.63;;;5.09;45.38
59009;BME280;44794;42.652;23.318;2024-01-30T13:28:12;96408.50;;;4.88;45.93
59009;BME280;44794;42.652;23.318;2024-01-30T13:30:37;96403.88;;;5.02;45.90
59009;BME280;44794;42.652;23.318;2024-01-30T13:33:03;96402.16;;;5.37;45.56
59009;BME280;44794;42.652;23.318;2024-01-30T13:35:28;96416.78;;;5.68;44.67
59009;BME280;44794;42.652;23.318;2024-01-30T13:37:53;96395.94;;;5.11;45.78
59009;BME280;44794;42.652;23.318;2024-01-30T13:40:19;96397.53;;;5.16;45.94
59009;BME280;44794;42.652;23.318;2024-01-30T13:42:44;96400.84;;;4.50;47.07
59009;BME280;44794;42.652;23.318;2024-01-30T13:45:09;96400.41;;;4.68;46.82
59009;BME280;44794;42.652;23.318;2024-01-30T13:47:35;96409.28;;;4.55;47.24
59009;BME280;44794;42.652;23.318;2024-01-30T13:50:00;96399.78;;;4.19;47.96
59009;BME280;44794;42.652;23.318;2024-01-30T13:52:25;96409.19;;;4.20;48.26
59009;BME280;44794;42.652;23.318;2024-01-30T13:54:52;96411.25;;;3.61;49.18
59009;BME280;44794;42.652;23.318;2024-01-30T13:57:17;96410.72;;;3.43;49.93
59009;BME280;44794;42.652;23.318;2024-01-30T13:59:42;96394.56;;;3.38;50.47
59009;BME280;44794;42.652;23.318;2024-01-30T14:02:07;96391.59;;;3.59;50.07
59009;BME280;44794;42.652;23.318;2024-01-30T14:04:35;96400.47;;;3.86;49.44
59009;BME280;44794;42.652;23.318;2024-01-30T14:07:02;96401.22;;;3.91;49.20
59009;BME280;44794;42.652;23.318;2024-01-30T14:09:27;96393.38;;;3.99;49.22
59009;BME280;44794;42.652;23.318;2024-01-30T14:11:52;96389.16;;;3.53;50.09
59009;BME280;44794;42.652;23.318;2024-01-30T14:14:18;96391.91;;;3.42;50.65
59009;BME280;44794;42.652;23.318;2024-01-30T14:16:43;96390.56;;;3.67;50.02
59009;BME280;44794;42.652;23.318;2024-01-30T14:19:08;96388.56;;;3.39;50.63
59009;BME280;44794;42.652;23.318;2024-01-30T14:21:33;96387.72;;;3.37;50.73
59009;BME280;44794;42.652;23.318;2024-01-30T14:23:59;96386.44;;;3.60;50.41
59009;BME280;44794;42.652;23.318;2024-01-30T14:26:24;96377.91;;;3.13;51.35
59009;BME280;44794;42.652;23.318;2024-01-30T14:28:49;96385.41;;;3.23;51.39
59009;BME280;44794;42.652;23.318;2024-01-30T14:31:15;96387.72;;;3.82;50.25
59009;BME280;44794;42.652;23.318;2024-01-30T14:33:41;96392.03;;;3.81;50.26
59009;BME280;44794;42.652;23.318;2024-01-30T14:36:07;96391.19;;;3.79;50.07
59009;BME280;44794;42.652;23.318;2024-01-30T14:38:34;96387.66;;;3.85;50.25
59009;BME280;44794;42.652;23.318;2024-01-30T14:40:59;96402.00;;;3.95;49.77
59009;BME280;44794;42.652;23.318;2024-01-30T14:43:24;96391.19;;;4.20;49.54
59009;BME280;44794;42.652;23.318;2024-01-30T14:45:49;96392.03;;;4.22;49.39
59009;BME280;44794;42.652;23.318;2024-01-30T14:48:17;96394.63;;;4.19;49.33